Terminal Aerodrome Forecast
Issued by NWS

Home | Current Version | Previous Version | Graphics & Text | Print | Product List | Glossary On
Versions: 1 2 3 4 5 6 7 8 9 10 11 12
000
FTUS43 KOAX 011720
TAFCDR
TAF
KCDR 011720Z 0118/0218 36012G20KT P6SM SCT120
     FM012200 03006KT P6SM SCT100
     FM020200 VRB04KT P6SM VCTS BKN080CB
     FM021200 VRB03KT 5SM BR SCT005 BKN015
     FM021600 32008KT P6SM SCT015 BKN100=

USA.gov is the U.S. government's official web portal to all federal, state and local government web resources and services.